Time;durP1;ratioP1;P1;durP2;ratioP2;P2;SDS_P1;SDS_P2;PMS_P1;PMS_P2;Temp;Humidity;BMP_temperature;BMP_pressure;BME280_temperature;BME280_humidity;BME280_pressure;Samples;Min_cycle;Max_cycle;Signal;HPM_P1;HPM_P2
2021/05/12 00:01:30;;;;;;;4.90;4.40;;;;;;;15.30;97.95;99711.16;5101055;27;20283;-73
2021/05/12 00:03:56;;;;;;;5.77;4.47;;;;;;;15.26;98.96;99718.38;5115128;27;20290;-73
2021/05/12 00:06:22;;;;;;;9.03;5.67;;;;;;;15.22;99.66;99718.69;5104089;28;20276;-72
2021/05/12 00:08:48;;;;;;;6.50;4.80;;;;;;;15.16;100.00;99717.25;5098742;28;20189;-73
2021/05/12 00:11:14;;;;;;;8.63;5.53;;;;;;;15.13;100.00;99722.69;5107749;28;20648;-72
2021/05/12 00:13:40;;;;;;;5.93;5.43;;;;;;;15.12;100.00;99732.34;5105878;27;20215;-72
2021/05/12 00:16:06;;;;;;;10.40;6.30;;;;;;;15.08;100.00;99733.47;5106609;28;20245;-73
2021/05/12 00:18:37;;;;;;;7.00;6.27;;;;;;;15.06;100.00;99730.09;5105688;28;20201;-73
2021/05/12 00:21:04;;;;;;;8.10;5.93;;;;;;;15.04;100.00;99731.97;5104116;28;20228;-73
2021/05/12 00:23:41;;;;;;;7.03;5.93;;;;;;;15.05;100.00;99740.69;5107416;27;20604;-73
2021/05/12 00:26:07;;;;;;;8.17;6.80;;;;;;;15.04;100.00;99742.47;5104382;27;20201;-73
2021/05/12 00:28:33;;;;;;;6.80;6.10;;;;;;;15.04;100.00;99737.22;5104488;28;20240;-73
2021/05/12 00:30:59;;;;;;;7.80;6.23;;;;;;;15.01;100.00;99736.56;5106703;28;20234;-73
2021/05/12 00:33:25;;;;;;;6.37;5.77;;;;;;;14.97;100.00;99743.75;5101911;27;20206;-73
2021/05/12 00:35:52;;;;;;;7.00;6.30;;;;;;;14.92;100.00;99745.81;5105364;28;20618;-73
2021/05/12 00:38:18;;;;;;;7.13;6.00;;;;;;;14.88;100.00;99749.53;5103997;28;20281;-73
2021/05/12 00:40:44;;;;;;;7.50;5.97;;;;;;;14.83;100.00;99762.06;5110663;27;20212;-73
2021/05/12 00:43:10;;;;;;;6.40;5.80;;;;;;;14.77;100.00;99768.50;5107254;27;20386;-73
2021/05/12 00:45:36;;;;;;;7.23;6.03;;;;;;;14.71;100.00;99767.09;5111671;27;20775;-73
2021/05/12 00:48:02;;;;;;;7.47;5.90;;;;;;;14.68;100.00;99761.19;5107910;28;20205;-73
2021/05/12 00:50:29;;;;;;;7.57;6.00;;;;;;;14.64;100.00;99768.38;5107204;27;20222;-73
2021/05/12 00:52:56;;;;;;;6.60;5.90;;;;;;;14.64;100.00;99765.75;5100595;28;20722;-72
2021/05/12 00:55:22;;;;;;;8.23;6.23;;;;;;;14.65;100.00;99772.69;5103103;28;20292;-72
2021/05/12 00:57:48;;;;;;;6.33;5.73;;;;;;;14.67;100.00;99786.56;5099359;28;20713;-73
2021/05/12 01:00:18;;;;;;;7.10;6.40;;;;;;;14.73;100.00;99785.38;5107158;28;20196;-72
2021/05/12 01:02:47;;;;;;;6.13;5.53;;;;;;;14.80;100.00;99783.25;5101361;28;20197;-73
2021/05/12 01:05:18;;;;;;;7.73;6.17;;;;;;;14.88;100.00;99794.13;5098249;28;20193;-73
2021/05/12 01:07:45;;;;;;;6.93;6.13;;;;;;;14.93;100.00;99792.97;5104844;28;20565;-73
2021/05/12 01:10:11;;;;;;;6.67;6.00;;;;;;;14.98;100.00;99792.69;5103606;28;20275;-73
2021/05/12 01:12:37;;;;;;;7.07;6.07;;;;;;;15.03;100.00;99795.88;5102894;28;20201;-73
2021/05/12 01:15:04;;;;;;;8.87;6.80;;;;;;;15.06;100.00;99792.25;5105871;28;20244;-73
2021/05/12 01:17:30;;;;;;;7.10;6.30;;;;;;;15.10;100.00;99791.97;5101938;28;20205;-73
2021/05/12 01:19:56;;;;;;;6.63;5.77;;;;;;;15.12;100.00;99790.09;5103364;28;20189;-72
2021/05/12 01:22:25;;;;;;;7.87;6.40;;;;;;;15.17;100.00;99789.84;5100805;27;20197;-73
2021/05/12 01:24:51;;;;;;;8.17;5.93;;;;;;;15.20;100.00;99794.91;5108272;28;20203;-73
2021/05/12 01:27:18;;;;;;;6.67;5.77;;;;;;;15.23;100.00;99796.50;5105715;28;20627;-73
2021/05/12 01:29:44;;;;;;;10.23;6.43;;;;;;;15.24;100.00;99799.03;5098553;28;20581;-73
2021/05/12 01:32:10;;;;;;;8.13;6.87;;;;;;;15.25;100.00;99792.88;5106719;28;20235;-73
2021/05/12 01:34:36;;;;;;;7.73;6.83;;;;;;;15.25;100.00;99794.63;5102887;28;20220;-73
2021/05/12 01:37:02;;;;;;;11.03;7.73;;;;;;;15.24;100.00;99795.59;5114718;27;20586;-73
2021/05/12 01:39:29;;;;;;;10.80;7.93;;;;;;;15.22;100.00;99792.22;5105460;28;20211;-73
2021/05/12 01:41:55;;;;;;;11.03;9.43;;;;;;;15.18;100.00;99799.41;5104545;27;20217;-73
2021/05/12 01:44:22;;;;;;;10.33;8.83;;;;;;;15.15;100.00;99796.97;5103077;27;20630;-73
2021/05/12 01:46:49;;;;;;;13.23;10.03;;;;;;;15.10;100.00;99796.38;5103216;28;20200;-73
2021/05/12 01:49:15;;;;;;;11.80;9.93;;;;;;;15.07;100.00;99801.81;5103206;28;20195;-72
2021/05/12 01:51:42;;;;;;;14.73;9.57;;;;;;;15.05;100.00;99803.69;5103384;27;20652;-73
2021/05/12 01:54:10;;;;;;;11.97;9.57;;;;;;;15.03;100.00;99805.56;5107145;28;20197;-73
2021/05/12 01:56:38;;;;;;;11.80;9.30;;;;;;;15.00;100.00;99803.94;5104423;28;20219;-73
2021/05/12 01:59:05;;;;;;;12.93;9.70;;;;;;;14.96;100.00;99799.81;5102182;28;20190;-73
2021/05/12 02:01:31;;;;;;;12.00;8.33;;;;;;;14.99;100.00;99806.66;5116637;27;20241;-73
2021/05/12 02:04:50;;;;;;;11.83;8.70;;;;;;;14.91;100.00;99807.09;5107571;27;20198;-72
2021/05/12 02:07:16;;;;;;;11.60;8.10;;;;;;;14.85;100.00;99808.28;5103140;28;20221;-72
2021/05/12 02:09:47;;;;;;;9.57;7.83;;;;;;;14.84;100.00;99806.59;5101155;28;20607;-72
2021/05/12 02:12:14;;;;;;;9.10;7.17;;;;;;;14.84;100.00;99805.75;5100391;28;20275;-72
2021/05/12 02:14:40;;;;;;;9.77;7.53;;;;;;;14.82;100.00;99803.22;5104893;28;20228;-72
2021/05/12 02:17:06;;;;;;;7.83;7.03;;;;;;;14.81;100.00;99800.66;5101525;28;20577;-73
2021/05/12 02:19:32;;;;;;;7.63;6.67;;;;;;;14.76;100.00;99809.66;5102484;28;20194;-72
2021/05/12 02:21:58;;;;;;;8.07;7.10;;;;;;;14.73;100.00;99804.56;5106124;28;20223;-72
2021/05/12 02:24:24;;;;;;;8.63;7.17;;;;;;;14.68;100.00;99800.53;5101671;28;20191;-72
2021/05/12 02:26:50;;;;;;;9.27;6.83;;;;;;;14.69;100.00;99803.06;5106724;28;21000;-72
2021/05/12 02:29:17;;;;;;;8.33;6.60;;;;;;;14.70;100.00;99804.75;5113282;27;20225;-72
2021/05/12 02:31:42;;;;;;;7.97;6.23;;;;;;;14.71;100.00;99798.56;5106686;28;20344;-72
2021/05/12 02:34:08;;;;;;;9.63;6.53;;;;;;;14.74;100.00;99802.81;5101654;28;20234;-72
2021/05/12 02:36:34;;;;;;;8.67;6.30;;;;;;;14.67;100.00;99801.44;5103785;28;20348;-72
2021/05/12 02:39:00;;;;;;;7.30;5.93;;;;;;;14.64;100.00;99806.88;5104472;28;20297;-72
2021/05/12 02:41:26;;;;;;;7.43;6.20;;;;;;;14.58;100.00;99800.19;5101381;28;20278;-72
2021/05/12 02:43:52;;;;;;;7.50;6.10;;;;;;;14.54;100.00;99801.25;5103111;28;20210;-72
2021/05/12 02:46:19;;;;;;;7.23;6.37;;;;;;;14.52;100.00;99797.88;5112614;28;20434;-73
2021/05/12 02:48:45;;;;;;;7.50;6.23;;;;;;;14.53;100.00;99800.44;5100653;28;20207;-72
2021/05/12 02:51:11;;;;;;;8.97;6.10;;;;;;;14.50;100.00;99800.59;5108044;28;20760;-72
2021/05/12 02:53:37;;;;;;;9.77;6.43;;;;;;;14.49;100.00;99790.19;5102900;28;20194;-72
2021/05/12 02:56:03;;;;;;;7.60;6.50;;;;;;;14.45;100.00;99791.28;5105587;28;20335;-72
2021/05/12 02:58:29;;;;;;;9.00;5.97;;;;;;;14.44;100.00;99787.84;5100341;28;20205;-72
2021/05/12 03:00:55;;;;;;;8.37;6.87;;;;;;;14.40;100.00;99791.53;5107495;28;20520;-72
2021/05/12 03:03:22;;;;;;;9.03;6.90;;;;;;;14.37;100.00;99795.19;5103324;28;20205;-72
2021/05/12 03:05:48;;;;;;;7.63;6.50;;;;;;;14.37;99.52;99791.69;5105490;28;20654;-71
2021/05/12 03:08:14;;;;;;;8.20;6.90;;;;;;;14.33;100.00;99804.13;5097974;28;20217;-72
2021/05/12 03:10:40;;;;;;;8.27;6.93;;;;;;;14.28;99.56;99805.31;5104571;28;20247;-72
2021/05/12 03:13:07;;;;;;;7.97;6.80;;;;;;;14.25;99.19;99805.47;5101007;28;20235;-72
2021/05/12 03:15:34;;;;;;;7.47;6.40;;;;;;;14.25;99.47;99815.97;5095384;28;20221;-72
2021/05/12 03:18:01;;;;;;;7.83;6.00;;;;;;;14.25;99.12;99815.97;5102679;28;20602;-72
2021/05/12 03:20:29;;;;;;;7.57;6.47;;;;;;;14.23;99.31;99817.81;5103081;28;20801;-72
2021/05/12 03:22:55;;;;;;;8.67;6.27;;;;;;;14.22;98.94;99816.16;5098557;28;20197;-72
2021/05/12 03:25:22;;;;;;;7.40;5.60;;;;;;;14.20;99.08;99822.31;5103447;28;20216;-72
2021/05/12 03:27:48;;;;;;;6.30;5.27;;;;;;;14.17;98.22;99829.50;5103785;28;20236;-72
2021/05/12 03:30:17;;;;;;;6.10;5.43;;;;;;;14.14;97.85;99830.53;5104899;27;20205;-72
2021/05/12 03:32:43;;;;;;;5.40;4.60;;;;;;;14.13;97.69;99831.44;5108706;28;20225;-72
2021/05/12 03:35:10;;;;;;;5.20;4.70;;;;;;;14.12;97.14;99842.84;5108252;28;20233;-72
2021/05/12 03:37:37;;;;;;;4.93;4.33;;;;;;;14.10;96.77;99839.44;5105091;28;20202;-73
2021/05/12 03:40:04;;;;;;;5.20;4.53;;;;;;;14.08;96.64;99838.69;5108864;28;20208;-72
2021/05/12 03:42:30;;;;;;;6.50;4.57;;;;;;;14.08;95.79;99843.94;5104601;28;20212;-74
2021/05/12 03:44:57;;;;;;;5.93;5.07;;;;;;;14.07;96.49;99838.78;5111125;27;20197;-74
2021/05/12 03:47:23;;;;;;;6.17;4.77;;;;;;;14.06;96.30;99847.59;5100193;27;20631;-74
2021/05/12 03:49:49;;;;;;;5.67;4.73;;;;;;;14.05;96.83;99849.34;5110127;27;20201;-74
2021/05/12 03:52:15;;;;;;;7.67;5.47;;;;;;;14.02;96.27;99855.59;5104942;27;20221;-74
2021/05/12 03:54:41;;;;;;;6.83;5.27;;;;;;;13.99;96.15;99852.28;5110766;27;20293;-73
2021/05/12 03:57:07;;;;;;;8.03;5.40;;;;;;;13.98;96.27;99848.84;5103537;28;20683;-73
2021/05/12 03:59:33;;;;;;;6.67;5.23;;;;;;;13.95;95.83;99856.00;5112610;27;20224;-73
2021/05/12 04:01:59;;;;;;;8.20;5.57;;;;;;;13.94;96.34;99855.16;5103497;27;20297;-74
2021/05/12 04:04:25;;;;;;;6.10;4.90;;;;;;;13.93;96.39;99857.84;5106845;27;20679;-73
2021/05/12 04:06:51;;;;;;;7.13;5.63;;;;;;;13.95;95.91;99863.88;5106283;27;20189;-74
2021/05/12 04:09:18;;;;;;;6.73;5.37;;;;;;;13.92;96.01;99866.66;5088897;28;20197;-74
2021/05/12 04:11:47;;;;;;;8.43;5.43;;;;;;;13.91;96.13;99863.19;5100918;27;20213;-74
2021/05/12 04:14:13;;;;;;;8.90;5.70;;;;;;;13.90;95.64;99866.72;5101369;27;20196;-74
2021/05/12 04:16:39;;;;;;;8.17;5.93;;;;;;;13.88;95.89;99865.97;5107183;27;20221;-74
2021/05/12 04:19:05;;;;;;;7.60;6.17;;;;;;;13.88;95.82;99872.94;5108167;28;20223;-74
2021/05/12 04:21:31;;;;;;;6.63;5.20;;;;;;;13.88;96.11;99884.31;5104014;27;20295;-74
2021/05/12 04:23:57;;;;;;;6.83;5.73;;;;;;;13.89;95.37;99880.75;5104620;28;20186;-74
2021/05/12 04:26:23;;;;;;;8.10;5.40;;;;;;;13.90;95.62;99889.47;5105387;27;20190;-74
2021/05/12 04:28:50;;;;;;;7.70;5.20;;;;;;;13.86;94.05;99901.88;5106966;27;20593;-74
2021/05/12 04:31:16;;;;;;;6.10;4.67;;;;;;;13.88;93.67;99905.25;5103322;27;20221;-73
2021/05/12 04:33:42;;;;;;;6.03;4.20;;;;;;;13.84;92.63;99911.56;5101212;28;20204;-74
2021/05/12 04:36:08;;;;;;;4.70;3.43;;;;;;;13.81;91.69;99904.72;5105049;28;20717;-74
2021/05/12 04:38:34;;;;;;;5.07;3.40;;;;;;;13.77;90.31;99908.44;5107889;27;20209;-73
2021/05/12 04:41:00;;;;;;;4.37;3.23;;;;;;;13.73;89.84;99911.28;5102754;28;20239;-73
2021/05/12 04:43:26;;;;;;;4.67;2.90;;;;;;;13.70;89.66;99903.56;5108597;28;20201;-74
2021/05/12 04:45:53;;;;;;;4.20;2.77;;;;;;;13.65;88.82;99916.91;5106312;27;20569;-73
2021/05/12 04:48:19;;;;;;;4.47;2.87;;;;;;;13.62;88.42;99919.69;5111844;27;20205;-73
2021/05/12 04:50:45;;;;;;;4.23;2.60;;;;;;;13.61;88.79;99928.44;5102334;27;20337;-73
2021/05/12 04:53:11;;;;;;;4.73;2.83;;;;;;;13.62;89.19;99927.53;5106808;28;20207;-73
2021/05/12 04:55:37;;;;;;;4.20;2.70;;;;;;;13.65;88.78;99916.91;5105165;28;20254;-74
2021/05/12 04:58:03;;;;;;;3.37;2.70;;;;;;;13.62;88.62;99935.41;5103019;28;20272;-74
2021/05/12 05:00:29;;;;;;;4.37;2.73;;;;;;;13.66;89.05;99930.84;5060373;28;20225;-73
2021/05/12 05:02:56;;;;;;;5.27;3.00;;;;;;;13.65;88.99;99937.88;5067128;28;20246;-74
2021/05/12 05:05:24;;;;;;;3.53;2.77;;;;;;;13.65;89.41;99935.25;5061683;28;20664;-73
2021/05/12 05:07:51;;;;;;;3.27;2.90;;;;;;;13.63;88.75;99943.19;5058496;28;20843;-74
2021/05/12 05:10:17;;;;;;;3.77;2.63;;;;;;;13.62;88.17;99938.00;5062252;28;20195;-74
2021/05/12 05:12:43;;;;;;;3.67;2.40;;;;;;;13.62;88.30;99941.47;5065605;28;20210;-73
2021/05/12 05:15:12;;;;;;;4.17;2.57;;;;;;;13.60;88.26;99942.47;5068377;28;20225;-73
2021/05/12 05:17:39;;;;;;;3.00;2.47;;;;;;;13.62;88.66;99943.25;5063785;28;20226;-74
2021/05/12 05:20:08;;;;;;;3.57;2.20;;;;;;;13.63;88.48;99951.03;5064546;28;20278;-74
2021/05/12 05:22:35;;;;;;;3.37;2.40;;;;;;;13.63;88.70;99942.31;5067585;28;20784;-74
2021/05/12 05:25:02;;;;;;;4.37;2.33;;;;;;;13.59;88.17;99944.22;5063609;28;20264;-74
2021/05/12 05:27:29;;;;;;;3.80;2.37;;;;;;;13.60;88.72;99948.56;5066190;28;20221;-73
2021/05/12 05:29:54;;;;;;;2.80;2.17;;;;;;;13.64;89.86;99938.78;5064932;28;20232;-74
2021/05/12 05:32:39;;;;;;;4.27;2.87;;;;;;;13.67;89.77;99943.00;5059994;28;20340;-73
2021/05/12 05:35:25;;;;;;;3.27;2.43;;;;;;;13.65;88.34;99940.50;5061058;28;20326;-74
2021/05/12 05:38:09;;;;;;;4.97;2.63;;;;;;;13.73;89.06;99943.56;5063313;28;20202;-73
2021/05/12 05:40:54;;;;;;;3.27;2.40;;;;;;;13.78;88.87;99940.72;5063603;28;20222;-74
2021/05/12 05:43:55;;;;;;;4.80;2.20;;;;;;;13.81;89.12;99951.88;5003392;28;20222;-73
2021/05/12 05:46:40;;;;;;;3.80;2.40;;;;;;;13.84;89.69;99943.00;5057604;28;20210;-73
2021/05/12 05:49:25;;;;;;;4.67;2.70;;;;;;;13.90;89.72;99947.13;5059717;28;20201;-74
2021/05/12 05:52:10;;;;;;;3.93;2.70;;;;;;;13.88;88.30;99949.81;5063131;28;20590;-73
2021/05/12 05:54:55;;;;;;;4.77;2.77;;;;;;;13.93;88.81;99954.78;5058915;28;20277;-74
2021/05/12 05:57:40;;;;;;;5.63;2.87;;;;;;;13.95;88.66;99958.22;5065875;28;20209;-74
2021/05/12 06:00:25;;;;;;;5.40;3.23;;;;;;;13.99;89.09;99962.38;5068236;28;20221;-73
2021/05/12 06:02:51;;;;;;;4.93;3.00;;;;;;;14.02;88.49;99964.84;5057492;28;20203;-73
2021/05/12 06:05:36;;;;;;;5.07;3.10;;;;;;;13.99;87.78;99965.81;5063566;28;20657;-73
2021/05/12 06:08:24;;;;;;;8.30;3.23;;;;;;;14.04;88.05;99965.59;5061182;28;20318;-73
2021/05/12 06:11:10;;;;;;;4.27;2.60;;;;;;;14.11;87.92;99966.97;5061674;28;20226;-73
2021/05/12 06:13:55;;;;;;;4.23;3.27;;;;;;;14.19;88.62;99956.97;5064335;28;20558;-74
2021/05/12 06:16:40;;;;;;;5.40;3.47;;;;;;;14.25;88.34;99963.66;5063214;28;20238;-73
2021/05/12 06:19:24;;;;;;;4.20;3.57;;;;;;;14.27;87.23;99963.56;5066931;28;20252;-73
2021/05/12 06:22:09;;;;;;;4.93;3.43;;;;;;;14.27;87.42;99961.78;5058134;28;20236;-73
2021/05/12 06:24:55;;;;;;;4.93;3.60;;;;;;;14.30;86.84;99955.53;5060506;28;20266;-73
2021/05/12 06:27:41;;;;;;;7.13;3.50;;;;;;;14.42;87.09;99956.66;5061090;28;20383;-73
2021/05/12 06:30:26;;;;;;;3.93;3.00;;;;;;;14.54;88.73;99956.03;5064979;28;20317;-73
2021/05/12 06:33:15;;;;;;;5.50;3.17;;;;;;;14.61;88.07;99954.78;5032055;28;20210;-74
2021/05/12 06:36:00;;;;;;;4.40;3.47;;;;;;;14.68;87.57;99956.16;5056164;28;20218;-74
2021/05/12 06:38:52;;;;;;;5.73;3.20;;;;;;;14.75;86.93;99962.75;5057971;28;20214;-74
2021/05/12 06:41:20;;;;;;;6.27;3.37;;;;;;;14.81;86.93;99959.00;5057997;28;20230;-74
2021/05/12 06:43:48;;;;;;;4.67;3.20;;;;;;;14.80;86.30;99962.53;5064511;28;20209;-74
2021/05/12 06:46:14;;;;;;;6.27;3.03;;;;;;;14.82;85.91;99962.44;5063471;28;20207;-74
2021/05/12 06:48:40;;;;;;;3.47;3.00;;;;;;;14.94;85.89;99956.53;5064718;28;20250;-73
2021/05/12 06:51:06;;;;;;;5.37;3.40;;;;;;;15.04;84.44;99976.09;5061395;28;20218;-73
2021/05/12 06:53:34;;;;;;;6.37;3.33;;;;;;;15.04;84.44;99965.59;5057526;28;20265;-73
2021/05/12 06:56:01;;;;;;;5.00;3.30;;;;;;;15.15;85.62;99965.84;5061556;28;20241;-74
2021/05/12 06:58:28;;;;;;;7.07;3.87;;;;;;;15.18;83.66;99967.47;5065391;28;20199;-74
2021/05/12 07:00:54;;;;;;;4.63;3.80;;;;;;;15.25;83.84;99974.06;5063699;28;20221;-73
2021/05/12 07:03:22;;;;;;;6.67;4.00;;;;;;;15.34;84.09;99981.41;5060581;28;20667;-74
2021/05/12 07:05:48;;;;;;;4.47;3.30;;;;;;;15.43;83.14;99971.34;5059644;28;20258;-74
2021/05/12 07:08:14;;;;;;;6.50;4.00;;;;;;;15.50;81.69;99976.16;5068645;28;20589;-74
2021/05/12 07:10:41;;;;;;;6.40;3.70;;;;;;;15.58;81.52;99973.06;5068685;28;20245;-74
2021/05/12 07:13:07;;;;;;;6.87;3.60;;;;;;;15.77;82.35;99975.53;5068111;28;20252;-74
2021/05/12 07:15:34;;;;;;;5.37;3.83;;;;;;;15.73;81.16;99991.53;5064289;28;20219;-73
2021/05/12 07:18:00;;;;;;;7.10;4.23;;;;;;;15.70;81.86;99996.00;5071916;28;20198;-74
2021/05/12 07:20:26;;;;;;;6.10;3.67;;;;;;;15.69;81.74;99998.75;5066627;28;20321;-74
2021/05/12 07:22:52;;;;;;;5.77;3.40;;;;;;;15.55;82.70;99988.16;5066927;28;20198;-74
2021/05/12 07:25:19;;;;;;;5.63;3.97;;;;;;;15.51;82.79;99983.09;5061653;28;20288;-74
2021/05/12 07:27:46;;;;;;;5.37;4.20;;;;;;;15.62;82.98;99976.38;5070605;28;20194;-73
2021/05/12 07:30:14;;;;;;;6.40;3.80;;;;;;;15.62;81.61;99981.63;5062009;28;20320;-74
2021/05/12 07:32:41;;;;;;;5.07;3.63;;;;;;;15.58;80.41;99986.19;5067017;28;20247;-73
2021/05/12 07:35:08;;;;;;;6.67;3.37;;;;;;;15.74;82.21;99978.28;5065239;28;20683;-74
2021/05/12 07:37:34;;;;;;;5.17;3.40;;;;;;;15.89;80.31;99980.06;5064481;28;20198;-74
2021/05/12 07:40:00;;;;;;;4.47;3.30;;;;;;;16.15;81.76;99976.84;5061330;28;20750;-73
2021/05/12 07:42:27;;;;;;;4.53;3.40;;;;;;;16.18;80.05;99980.16;5063335;28;20546;-74
2021/05/12 07:44:53;;;;;;;5.40;3.23;;;;;;;16.12;80.04;99983.13;5066435;28;20302;-73
2021/05/12 07:47:19;;;;;;;6.70;3.30;;;;;;;16.16;79.87;99979.38;5046954;28;20738;-74
2021/05/12 07:49:45;;;;;;;4.83;3.70;;;;;;;16.00;80.12;99976.78;5061743;28;20757;-74
2021/05/12 07:52:14;;;;;;;5.67;3.50;;;;;;;15.90;81.04;99983.56;5048507;28;20726;-74
2021/05/12 07:54:40;;;;;;;6.67;3.90;;;;;;;15.84;81.43;99982.09;5064657;28;20202;-74
2021/05/12 07:57:06;;;;;;;7.27;4.37;;;;;;;15.84;81.05;99981.28;5062228;28;20222;-74
2021/05/12 07:59:32;;;;;;;8.67;4.17;;;;;;;15.77;81.04;99980.78;5062321;28;20199;-74
2021/05/12 08:02:01;;;;;;;6.43;4.53;;;;;;;15.77;80.91;99979.94;5061719;28;20771;-74
2021/05/12 08:04:26;;;;;;;8.93;5.80;;;;;;;15.63;81.35;99978.06;5063607;28;20221;-74
2021/05/12 08:06:53;;;;;;;10.17;6.07;;;;;;;15.48;81.55;99974.56;5081882;28;20191;-74
2021/05/12 08:09:19;;;;;;;9.50;6.23;;;;;;;15.34;82.30;99968.28;5065331;28;20252;-74
2021/05/12 08:11:45;;;;;;;7.83;6.07;;;;;;;15.37;83.15;99954.13;5066808;28;20297;-74
2021/05/12 08:14:11;;;;;;;9.73;6.43;;;;;;;15.30;82.92;99951.03;5059939;28;20789;-74
2021/05/12 08:16:37;;;;;;;8.10;6.00;;;;;;;15.21;83.32;99948.06;5064182;28;20207;-74
2021/05/12 08:19:03;;;;;;;8.80;6.60;;;;;;;15.10;84.26;99935.53;5060882;28;20290;-73
2021/05/12 08:21:29;;;;;;;10.57;7.03;;;;;;;15.06;84.32;99931.38;5061623;28;20219;-73
2021/05/12 08:23:56;;;;;;;9.87;7.30;;;;;;;15.05;85.02;99934.94;5059829;28;20588;-74
2021/05/12 08:26:22;;;;;;;9.10;6.70;;;;;;;15.19;84.75;99928.91;5076732;28;20195;-74
2021/05/12 08:28:49;;;;;;;10.67;6.80;;;;;;;15.33;84.19;99939.47;5064526;28;20317;-74
2021/05/12 08:31:15;;;;;;;10.97;7.03;;;;;;;15.40;82.85;99942.59;5066477;28;20247;-74
2021/05/12 08:33:42;;;;;;;12.20;7.00;;;;;;;15.67;82.69;99948.03;5056553;28;20211;-74
2021/05/12 08:36:08;;;;;;;10.30;6.73;;;;;;;15.75;81.88;99951.13;5064837;28;20206;-73
2021/05/12 08:38:35;;;;;;;9.77;6.67;;;;;;;15.82;83.27;99946.34;5062789;28;20281;-74
2021/05/12 08:41:03;;;;;;;10.93;6.30;;;;;;;15.69;81.82;99948.81;5064899;28;20220;-74
2021/05/12 08:43:30;;;;;;;9.60;5.97;;;;;;;15.68;82.95;99947.97;5060175;28;20210;-73
2021/05/12 08:45:57;;;;;;;7.50;6.40;;;;;;;15.76;82.27;99952.81;5065575;28;20202;-73
2021/05/12 08:48:24;;;;;;;9.33;6.43;;;;;;;15.88;82.68;99956.50;5058267;28;20203;-73
2021/05/12 08:50:52;;;;;;;8.00;6.53;;;;;;;15.97;82.46;99969.13;5067762;28;20225;-74
2021/05/12 08:53:19;;;;;;;8.10;6.23;;;;;;;16.11;82.29;99957.75;5064876;28;20194;-73
2021/05/12 08:55:45;;;;;;;8.83;5.83;;;;;;;16.19;81.92;99950.25;5064183;28;20222;-73
2021/05/12 08:58:12;;;;;;;9.10;6.80;;;;;;;16.08;79.43;99950.06;5062598;28;20741;-74
2021/05/12 09:00:39;;;;;;;8.10;6.33;;;;;;;16.04;80.32;99959.94;5065519;28;20803;-73
2021/05/12 09:03:05;;;;;;;9.47;6.40;;;;;;;15.97;79.23;99965.63;5056076;28;20218;-74
2021/05/12 09:05:32;;;;;;;7.07;5.90;;;;;;;15.95;79.70;99962.22;5062039;28;20195;-74
2021/05/12 09:07:58;;;;;;;9.07;6.27;;;;;;;16.11;79.89;99941.97;5066195;28;20207;-74
2021/05/12 09:10:24;;;;;;;8.43;6.63;;;;;;;16.32;78.40;99933.72;5059220;28;20287;-74
2021/05/12 09:12:52;;;;;;;9.70;7.17;;;;;;;16.32;77.48;99926.69;5062132;28;20643;-74
2021/05/12 09:15:21;;;;;;;9.53;6.70;;;;;;;16.50;78.38;99932.63;5064080;28;20586;-74
2021/05/12 09:17:49;;;;;;;11.27;7.30;;;;;;;16.59;77.46;99944.38;5060515;28;20208;-74
2021/05/12 09:20:33;;;;;;;9.70;6.40;;;;;;;16.76;78.10;99935.41;5061519;28;20554;-73
2021/05/12 09:23:15;;;;;;;8.17;6.40;;;;;;;16.87;78.82;99929.47;5074862;28;20195;-74
2021/05/12 09:25:52;;;;;;;10.73;7.10;;;;;;;16.90;78.48;99931.94;5056739;28;20276;-73
2021/05/12 09:28:20;;;;;;;10.10;6.53;;;;;;;16.97;78.91;99934.09;5062135;28;20725;-74
2021/05/12 09:30:49;;;;;;;9.97;6.33;;;;;;;16.90;78.73;99945.09;5064329;28;20226;-74
2021/05/12 09:33:25;;;;;;;11.87;7.60;;;;;;;16.86;79.63;99949.72;5062036;28;20183;-73
2021/05/12 09:35:51;;;;;;;10.30;7.20;;;;;;;16.55;78.62;99950.72;5060374;28;20209;-74
2021/05/12 09:38:21;;;;;;;10.23;7.63;;;;;;;16.34;79.13;99947.63;5059491;28;20542;-74
2021/05/12 09:41:00;;;;;;;8.40;6.90;;;;;;;16.21;78.95;99947.53;5059197;28;20316;-74
2021/05/12 09:43:27;;;;;;;8.10;6.10;;;;;;;16.19;79.27;99947.63;5065883;28;20274;-74
2021/05/12 09:45:54;;;;;;;8.80;7.27;;;;;;;16.27;79.19;99936.66;5064433;28;20629;-74
2021/05/12 09:48:20;;;;;;;9.40;6.70;;;;;;;16.44;79.27;99933.81;5062635;28;20195;-74
2021/05/12 09:50:46;;;;;;;7.83;6.67;;;;;;;16.71;80.30;99935.69;5062670;28;20219;-73
2021/05/12 09:53:13;;;;;;;9.77;6.50;;;;;;;16.83;78.40;99940.22;5060986;28;20233;-74
2021/05/12 09:55:41;;;;;;;11.43;6.30;;;;;;;16.91;77.13;99944.16;5060619;28;20238;-74
2021/05/12 09:58:08;;;;;;;7.03;5.80;;;;;;;16.97;78.30;99947.25;5062977;28;20619;-74
2021/05/12 10:00:36;;;;;;;7.30;5.73;;;;;;;16.88;76.44;99949.63;5055081;28;20222;-74
2021/05/12 10:03:04;;;;;;;7.77;6.00;;;;;;;16.86;76.04;99962.88;5060170;28;20201;-74
2021/05/12 10:05:49;;;;;;;8.37;5.13;;;;;;;16.97;75.14;99954.28;5059171;28;20198;-73
2021/05/12 10:08:20;;;;;;;7.90;5.57;;;;;;;17.08;75.22;99949.19;5057731;28;20671;-74
2021/05/12 10:10:46;;;;;;;6.23;5.30;;;;;;;17.18;73.72;99952.94;5061777;28;20281;-74
2021/05/12 10:13:12;;;;;;;6.60;5.00;;;;;;;17.40;73.44;99951.53;5057665;28;20202;-74
2021/05/12 10:15:38;;;;;;;7.00;5.47;;;;;;;17.26;72.77;99955.06;5059858;28;20301;-74
2021/05/12 10:18:07;;;;;;;8.47;5.17;;;;;;;17.12;73.15;99960.38;5072136;28;20290;-74
2021/05/12 10:20:34;;;;;;;9.30;5.30;;;;;;;17.11;73.92;99967.41;5057756;28;20222;-74
2021/05/12 10:23:00;;;;;;;6.17;4.70;;;;;;;17.13;74.53;99970.81;5062848;28;20211;-74
2021/05/12 10:25:26;;;;;;;5.57;4.83;;;;;;;17.06;75.27;99973.94;5059430;28;20216;-74
2021/05/12 10:27:55;;;;;;;6.80;5.27;;;;;;;16.94;77.51;99973.78;5059637;28;20207;-74
2021/05/12 10:30:21;;;;;;;7.03;6.03;;;;;;;16.61;77.89;99977.53;5061261;28;20223;-74
2021/05/12 10:32:51;;;;;;;6.97;6.00;;;;;;;16.36;78.26;99966.78;5063711;28;20264;-73
2021/05/12 10:35:18;;;;;;;7.10;5.57;;;;;;;16.42;80.02;99969.91;5058054;28;20214;-74
2021/05/12 10:37:46;;;;;;;7.53;6.03;;;;;;;16.40;79.20;99969.16;5064515;28;20237;-73
2021/05/12 10:40:19;;;;;;;7.53;5.37;;;;;;;16.37;77.43;99974.59;5062415;28;20327;-74
2021/05/12 10:45:57;;;;;;;8.60;5.73;;;;;;;16.44;76.45;99978.53;5064469;28;20678;-74
2021/05/12 10:48:33;;;;;;;6.10;5.40;;;;;;;16.59;76.36;99978.56;5062464;28;20310;-73
2021/05/12 10:51:01;;;;;;;6.43;5.00;;;;;;;16.77;75.79;99980.06;5063359;28;20229;-73
2021/05/12 10:53:28;;;;;;;6.27;5.30;;;;;;;16.96;75.37;99978.94;5059968;28;20210;-74
2021/05/12 10:56:05;;;;;;;6.20;5.60;;;;;;;17.05;73.46;99986.25;5061534;28;20295;-74
2021/05/12 10:58:33;;;;;;;8.13;5.10;;;;;;;17.10;75.25;99986.81;5060678;28;20275;-74
2021/05/12 11:01:00;;;;;;;6.97;5.30;;;;;;;17.12;74.74;99984.94;5062399;28;20857;-74
2021/05/12 11:03:49;;;;;;;6.73;5.77;;;;;;;17.15;74.05;99989.13;5060855;28;20293;-74
2021/05/12 11:06:16;;;;;;;5.93;5.13;;;;;;;17.12;72.98;99984.94;5064206;28;20224;-74
2021/05/12 11:09:06;;;;;;;6.07;5.10;;;;;;;17.15;73.47;99979.47;5061662;28;20253;-74
2021/05/12 11:11:32;;;;;;;7.00;4.90;;;;;;;17.15;74.70;99975.97;5062587;28;20749;-73
2021/05/12 11:14:19;;;;;;;5.97;5.37;;;;;;;17.00;73.93;99977.81;5056671;28;20446;-74
2021/05/12 11:16:59;;;;;;;6.93;5.50;;;;;;;16.83;75.79;99979.72;5060259;28;20214;-72
2021/05/12 11:19:36;;;;;;;6.27;5.00;;;;;;;16.85;77.78;99977.00;5061401;28;20248;-73
2021/05/12 11:22:36;;;;;;;7.00;5.77;;;;;;;16.84;76.79;99981.38;5060214;28;20227;-74
2021/05/12 11:25:08;;;;;;;7.50;5.67;;;;;;;16.69;77.90;99977.03;5058573;28;20249;-74
2021/05/12 11:27:53;;;;;;;7.87;5.70;;;;;;;16.65;78.49;99971.13;5060694;28;20199;-74
2021/05/12 11:33:04;;;;;;;8.63;6.53;;;;;;;16.61;76.56;99974.06;5057189;28;20210;-74
2021/05/12 11:35:31;;;;;;;11.20;6.60;;;;;;;16.47;77.52;99967.84;5057057;28;20194;-73
2021/05/12 11:37:59;;;;;;;7.93;6.00;;;;;;;16.36;77.53;99965.03;5059593;28;20211;-74
2021/05/12 11:40:30;;;;;;;6.97;6.07;;;;;;;16.31;78.54;99961.00;5061510;28;20215;-73
2021/05/12 11:42:57;;;;;;;10.90;7.10;;;;;;;16.32;78.98;99976.66;5055007;28;20207;-74
2021/05/12 11:45:23;;;;;;;7.53;6.60;;;;;;;16.33;78.54;99981.00;5059539;28;20249;-73